sensor_id;sensor_type;location;lat;lon;timestamp;P1;durP1;ratioP1;P2;durP2;ratioP2
17858;SDS011;35426;30.698;104.050;2023-03-04T00:01:00;121.70;;;49.47;;
17858;SDS011;35426;30.698;104.050;2023-03-04T00:03:37;109.73;;;49.43;;
17858;SDS011;35426;30.698;104.050;2023-03-04T00:06:13;120.43;;;52.97;;
17858;SDS011;35426;30.698;104.050;2023-03-04T00:08:52;121.57;;;52.57;;
17858;SDS011;35426;30.698;104.050;2023-03-04T00:11:28;129.13;;;53.10;;
17858;SDS011;35426;30.698;104.050;2023-03-04T00:14:04;132.13;;;54.10;;
17858;SDS011;35426;30.698;104.050;2023-03-04T00:16:39;137.87;;;55.87;;
17858;SDS011;35426;30.698;104.050;2023-03-04T00:19:18;144.60;;;57.13;;
17858;SDS011;35426;30.698;104.050;2023-03-04T00:21:54;140.53;;;58.80;;
17858;SDS011;35426;30.698;104.050;2023-03-04T00:24:37;138.67;;;60.03;;
17858;SDS011;35426;30.698;104.050;2023-03-04T00:27:16;135.37;;;59.03;;
17858;SDS011;35426;30.698;104.050;2023-03-04T00:29:53;143.93;;;58.93;;
17858;SDS011;35426;30.698;104.050;2023-03-04T00:32:30;139.23;;;58.17;;
17858;SDS011;35426;30.698;104.050;2023-03-04T00:35:07;133.80;;;57.87;;
17858;SDS011;35426;30.698;104.050;2023-03-04T00:37:43;131.03;;;58.97;;
17858;SDS011;35426;30.698;104.050;2023-03-04T00:40:22;139.23;;;59.70;;
17858;SDS011;35426;30.698;104.050;2023-03-04T00:42:59;134.23;;;60.67;;
17858;SDS011;35426;30.698;104.050;2023-03-04T00:45:35;146.13;;;65.07;;
17858;SDS011;35426;30.698;104.050;2023-03-04T00:48:14;145.10;;;63.63;;
17858;SDS011;35426;30.698;104.050;2023-03-04T00:50:51;144.23;;;64.47;;
17858;SDS011;35426;30.698;104.050;2023-03-04T00:53:27;151.37;;;67.53;;
17858;SDS011;35426;30.698;104.050;2023-03-04T00:56:06;153.60;;;63.93;;
17858;SDS011;35426;30.698;104.050;2023-03-04T00:58:44;143.47;;;64.27;;
17858;SDS011;35426;30.698;104.050;2023-03-04T01:01:21;147.53;;;63.90;;
17858;SDS011;35426;30.698;104.050;2023-03-04T01:04:04;151.40;;;64.83;;
17858;SDS011;35426;30.698;104.050;2023-03-04T01:06:41;160.13;;;65.27;;
17858;SDS011;35426;30.698;104.050;2023-03-04T01:09:18;150.33;;;63.00;;
17858;SDS011;35426;30.698;104.050;2023-03-04T01:11:58;159.77;;;66.60;;
17858;SDS011;35426;30.698;104.050;2023-03-04T01:14:37;148.93;;;65.47;;
17858;SDS011;35426;30.698;104.050;2023-03-04T01:17:14;154.80;;;66.23;;
17858;SDS011;35426;30.698;104.050;2023-03-04T01:19:51;168.73;;;68.03;;
17858;SDS011;35426;30.698;104.050;2023-03-04T01:22:28;144.07;;;67.67;;
17858;SDS011;35426;30.698;104.050;2023-03-04T01:25:04;155.73;;;68.83;;
17858;SDS011;35426;30.698;104.050;2023-03-04T01:27:45;155.33;;;66.50;;
17858;SDS011;35426;30.698;104.050;2023-03-04T01:30:21;161.77;;;68.80;;
17858;SDS011;35426;30.698;104.050;2023-03-04T01:32:57;156.87;;;67.83;;
17858;SDS011;35426;30.698;104.050;2023-03-04T01:35:34;152.40;;;70.00;;
17858;SDS011;35426;30.698;104.050;2023-03-04T01:38:12;166.57;;;71.27;;
17858;SDS011;35426;30.698;104.050;2023-03-04T01:40:48;145.37;;;67.80;;
17858;SDS011;35426;30.698;104.050;2023-03-04T01:43:28;157.30;;;68.33;;
17858;SDS011;35426;30.698;104.050;2023-03-04T01:46:05;159.37;;;70.53;;
17858;SDS011;35426;30.698;104.050;2023-03-04T01:48:44;157.10;;;71.33;;
17858;SDS011;35426;30.698;104.050;2023-03-04T01:51:20;161.20;;;76.07;;
17858;SDS011;35426;30.698;104.050;2023-03-04T01:53:57;160.77;;;72.63;;
17858;SDS011;35426;30.698;104.050;2023-03-04T01:56:47;145.43;;;67.03;;
17858;SDS011;35426;30.698;104.050;2023-03-04T01:59:32;154.37;;;71.70;;
17858;SDS011;35426;30.698;104.050;2023-03-04T02:02:12;166.67;;;70.70;;
17858;SDS011;35426;30.698;104.050;2023-03-04T02:04:49;161.60;;;72.40;;
17858;SDS011;35426;30.698;104.050;2023-03-04T02:07:26;151.17;;;70.20;;
17858;SDS011;35426;30.698;104.050;2023-03-04T02:10:08;147.57;;;70.50;;
17858;SDS011;35426;30.698;104.050;2023-03-04T02:12:45;169.97;;;74.43;;
17858;SDS011;35426;30.698;104.050;2023-03-04T02:15:29;134.53;;;61.87;;
17858;SDS011;35426;30.698;104.050;2023-03-04T02:18:13;144.90;;;67.63;;
17858;SDS011;35426;30.698;104.050;2023-03-04T02:20:54;136.80;;;67.17;;
17858;SDS011;35426;30.698;104.050;2023-03-04T02:23:41;152.03;;;67.93;;
17858;SDS011;35426;30.698;104.050;2023-03-04T02:26:25;146.23;;;65.43;;
17858;SDS011;35426;30.698;104.050;2023-03-04T02:29:06;149.80;;;69.93;;
17858;SDS011;35426;30.698;104.050;2023-03-04T02:31:48;135.77;;;65.77;;
17858;SDS011;35426;30.698;104.050;2023-03-04T02:34:28;138.00;;;67.30;;
17858;SDS011;35426;30.698;104.050;2023-03-04T02:37:09;146.90;;;69.77;;
17858;SDS011;35426;30.698;104.050;2023-03-04T02:39:46;145.33;;;68.77;;
17858;SDS011;35426;30.698;104.050;2023-03-04T02:42:26;134.77;;;66.73;;
17858;SDS011;35426;30.698;104.050;2023-03-04T02:45:03;132.70;;;63.60;;
17858;SDS011;35426;30.698;104.050;2023-03-04T02:48:10;133.93;;;66.07;;
17858;SDS011;35426;30.698;104.050;2023-03-04T02:50:49;128.53;;;65.80;;
17858;SDS011;35426;30.698;104.050;2023-03-04T02:53:27;136.00;;;65.63;;
17858;SDS011;35426;30.698;104.050;2023-03-04T02:56:08;132.03;;;63.23;;
17858;SDS011;35426;30.698;104.050;2023-03-04T02:58:56;125.70;;;66.63;;
17858;SDS011;35426;30.698;104.050;2023-03-04T03:01:33;133.50;;;64.37;;
17858;SDS011;35426;30.698;104.050;2023-03-04T03:04:11;119.30;;;60.43;;
17858;SDS011;35426;30.698;104.050;2023-03-04T03:06:53;123.83;;;61.17;;
17858;SDS011;35426;30.698;104.050;2023-03-04T03:09:30;126.57;;;60.70;;
17858;SDS011;35426;30.698;104.050;2023-03-04T03:12:09;112.20;;;57.07;;
17858;SDS011;35426;30.698;104.050;2023-03-04T03:14:47;109.17;;;56.83;;
17858;SDS011;35426;30.698;104.050;2023-03-04T03:17:30;106.63;;;51.80;;
17858;SDS011;35426;30.698;104.050;2023-03-04T03:20:09;105.83;;;50.57;;
17858;SDS011;35426;30.698;104.050;2023-03-04T03:22:52;96.93;;;50.23;;
17858;SDS011;35426;30.698;104.050;2023-03-04T03:25:36;112.17;;;55.73;;
17858;SDS011;35426;30.698;104.050;2023-03-04T03:28:15;128.10;;;56.10;;
17858;SDS011;35426;30.698;104.050;2023-03-04T03:30:55;109.67;;;54.50;;
17858;SDS011;35426;30.698;104.050;2023-03-04T03:33:33;99.80;;;53.40;;
17858;SDS011;35426;30.698;104.050;2023-03-04T03:36:12;110.57;;;55.27;;
17858;SDS011;35426;30.698;104.050;2023-03-04T03:38:55;112.27;;;54.57;;
17858;SDS011;35426;30.698;104.050;2023-03-04T03:41:33;106.70;;;55.23;;
17858;SDS011;35426;30.698;104.050;2023-03-04T03:44:15;109.20;;;55.67;;
17858;SDS011;35426;30.698;104.050;2023-03-04T03:47:00;104.80;;;54.80;;
17858;SDS011;35426;30.698;104.050;2023-03-04T03:49:38;106.93;;;55.87;;
17858;SDS011;35426;30.698;104.050;2023-03-04T03:52:14;122.90;;;56.60;;
17858;SDS011;35426;30.698;104.050;2023-03-04T03:54:57;111.73;;;55.67;;
17858;SDS011;35426;30.698;104.050;2023-03-04T03:57:41;107.60;;;53.87;;
17858;SDS011;35426;30.698;104.050;2023-03-04T04:00:19;122.63;;;58.20;;
17858;SDS011;35426;30.698;104.050;2023-03-04T04:03:01;107.63;;;56.50;;
17858;SDS011;35426;30.698;104.050;2023-03-04T04:05:39;110.10;;;55.93;;
17858;SDS011;35426;30.698;104.050;2023-03-04T04:08:19;117.13;;;58.53;;
17858;SDS011;35426;30.698;104.050;2023-03-04T04:11:01;122.27;;;60.50;;
17858;SDS011;35426;30.698;104.050;2023-03-04T04:13:58;117.07;;;58.13;;
17858;SDS011;35426;30.698;104.050;2023-03-04T04:16:49;111.93;;;59.13;;
17858;SDS011;35426;30.698;104.050;2023-03-04T04:19:36;115.27;;;60.10;;
17858;SDS011;35426;30.698;104.050;2023-03-04T04:22:15;122.13;;;59.90;;
17858;SDS011;35426;30.698;104.050;2023-03-04T04:24:57;119.27;;;59.90;;
17858;SDS011;35426;30.698;104.050;2023-03-04T04:27:40;119.57;;;55.33;;
17858;SDS011;35426;30.698;104.050;2023-03-04T04:30:24;107.70;;;52.13;;
17858;SDS011;35426;30.698;104.050;2023-03-04T04:33:02;104.70;;;49.60;;
17858;SDS011;35426;30.698;104.050;2023-03-04T04:35:54;106.43;;;52.47;;
17858;SDS011;35426;30.698;104.050;2023-03-04T04:38:41;101.30;;;48.73;;
17858;SDS011;35426;30.698;104.050;2023-03-04T04:41:29;105.37;;;49.23;;
17858;SDS011;35426;30.698;104.050;2023-03-04T04:44:17;99.00;;;48.60;;
17858;SDS011;35426;30.698;104.050;2023-03-04T04:47:09;87.93;;;45.07;;
17858;SDS011;35426;30.698;104.050;2023-03-04T04:50:21;90.60;;;41.43;;
17858;SDS011;35426;30.698;104.050;2023-03-04T04:53:33;78.57;;;41.50;;
17858;SDS011;35426;30.698;104.050;2023-03-04T04:56:13;93.57;;;43.47;;
17858;SDS011;35426;30.698;104.050;2023-03-04T04:59:04;91.17;;;43.60;;
17858;SDS011;35426;30.698;104.050;2023-03-04T05:01:42;89.57;;;43.03;;
17858;SDS011;35426;30.698;104.050;2023-03-04T05:04:24;84.23;;;41.63;;
17858;SDS011;35426;30.698;104.050;2023-03-04T05:07:03;85.30;;;42.63;;
17858;SDS011;35426;30.698;104.050;2023-03-04T05:09:48;91.00;;;43.90;;
17858;SDS011;35426;30.698;104.050;2023-03-04T05:12:26;89.13;;;41.50;;
17858;SDS011;35426;30.698;104.050;2023-03-04T05:15:04;83.33;;;40.50;;
17858;SDS011;35426;30.698;104.050;2023-03-04T05:17:51;101.70;;;43.03;;
17858;SDS011;35426;30.698;104.050;2023-03-04T05:20:29;103.80;;;46.13;;
17858;SDS011;35426;30.698;104.050;2023-03-04T05:23:07;96.73;;;47.93;;
17858;SDS011;35426;30.698;104.050;2023-03-04T05:25:48;93.53;;;48.23;;
17858;SDS011;35426;30.698;104.050;2023-03-04T05:28:29;108.23;;;50.30;;
17858;SDS011;35426;30.698;104.050;2023-03-04T05:31:15;101.90;;;49.87;;
17858;SDS011;35426;30.698;104.050;2023-03-04T05:33:52;101.53;;;51.90;;
17858;SDS011;35426;30.698;104.050;2023-03-04T05:36:32;105.73;;;50.97;;
17858;SDS011;35426;30.698;104.050;2023-03-04T05:39:14;98.40;;;49.30;;
17858;SDS011;35426;30.698;104.050;2023-03-04T05:41:54;111.63;;;53.13;;
17858;SDS011;35426;30.698;104.050;2023-03-04T05:44:33;104.83;;;51.23;;
17858;SDS011;35426;30.698;104.050;2023-03-04T05:47:10;109.00;;;52.60;;
17858;SDS011;35426;30.698;104.050;2023-03-04T05:49:48;104.73;;;52.40;;
17858;SDS011;35426;30.698;104.050;2023-03-04T05:52:26;111.30;;;52.30;;
17858;SDS011;35426;30.698;104.050;2023-03-04T05:55:05;113.00;;;53.03;;
17858;SDS011;35426;30.698;104.050;2023-03-04T05:57:50;109.87;;;52.17;;
17858;SDS011;35426;30.698;104.050;2023-03-04T06:00:28;104.97;;;52.00;;
17858;SDS011;35426;30.698;104.050;2023-03-04T06:03:11;114.97;;;55.90;;
17858;SDS011;35426;30.698;104.050;2023-03-04T06:05:52;101.13;;;53.30;;
17858;SDS011;35426;30.698;104.050;2023-03-04T06:08:29;104.37;;;51.60;;
17858;SDS011;35426;30.698;104.050;2023-03-04T06:11:13;102.03;;;54.37;;
17858;SDS011;35426;30.698;104.050;2023-03-04T06:14:06;108.73;;;54.97;;
17858;SDS011;35426;30.698;104.050;2023-03-04T06:16:47;115.33;;;55.67;;
17858;SDS011;35426;30.698;104.050;2023-03-04T06:19:28;108.87;;;53.30;;
17858;SDS011;35426;30.698;104.050;2023-03-04T06:22:07;107.27;;;54.13;;
17858;SDS011;35426;30.698;104.050;2023-03-04T06:24:55;103.80;;;51.93;;
17858;SDS011;35426;30.698;104.050;2023-03-04T06:27:34;100.33;;;51.23;;
17858;SDS011;35426;30.698;104.050;2023-03-04T06:30:16;111.17;;;51.03;;
17858;SDS011;35426;30.698;104.050;2023-03-04T06:33:01;103.90;;;49.77;;
17858;SDS011;35426;30.698;104.050;2023-03-04T06:35:41;107.40;;;51.57;;
17858;SDS011;35426;30.698;104.050;2023-03-04T06:38:19;108.87;;;52.53;;
17858;SDS011;35426;30.698;104.050;2023-03-04T06:41:10;108.07;;;52.53;;
17858;SDS011;35426;30.698;104.050;2023-03-04T06:43:48;104.27;;;48.90;;
17858;SDS011;35426;30.698;104.050;2023-03-04T06:46:33;101.10;;;49.07;;
17858;SDS011;35426;30.698;104.050;2023-03-04T06:49:12;106.27;;;50.37;;
17858;SDS011;35426;30.698;104.050;2023-03-04T06:51:55;104.87;;;52.37;;
17858;SDS011;35426;30.698;104.050;2023-03-04T06:54:35;103.40;;;51.53;;
17858;SDS011;35426;30.698;104.050;2023-03-04T06:57:14;106.80;;;52.07;;
17858;SDS011;35426;30.698;104.050;2023-03-04T06:59:52;103.73;;;50.10;;
17858;SDS011;35426;30.698;104.050;2023-03-04T07:02:35;94.90;;;49.07;;
17858;SDS011;35426;30.698;104.050;2023-03-04T07:05:15;99.70;;;49.53;;
17858;SDS011;35426;30.698;104.050;2023-03-04T07:07:54;97.63;;;50.00;;
17858;SDS011;35426;30.698;104.050;2023-03-04T07:10:33;98.10;;;48.73;;
17858;SDS011;35426;30.698;104.050;2023-03-04T07:13:13;74.67;;;31.87;;
17858;SDS011;35426;30.698;104.050;2023-03-04T07:15:50;85.83;;;35.47;;
17858;SDS011;35426;30.698;104.050;2023-03-04T07:18:35;89.47;;;34.63;;
17858;SDS011;35426;30.698;104.050;2023-03-04T07:21:12;93.80;;;35.27;;
17858;SDS011;35426;30.698;104.050;2023-03-04T07:23:53;81.00;;;33.57;;
17858;SDS011;35426;30.698;104.050;2023-03-04T07:26:34;81.77;;;33.83;;
17858;SDS011;35426;30.698;104.050;2023-03-04T07:29:13;81.27;;;32.47;;
17858;SDS011;35426;30.698;104.050;2023-03-04T07:31:59;86.77;;;39.77;;
17858;SDS011;35426;30.698;104.050;2023-03-04T07:34:44;97.07;;;48.63;;
17858;SDS011;35426;30.698;104.050;2023-03-04T07:37:24;96.13;;;47.40;;
17858;SDS011;35426;30.698;104.050;2023-03-04T07:40:01;102.77;;;49.63;;
17858;SDS011;35426;30.698;104.050;2023-03-04T07:42:42;100.07;;;47.67;;
17858;SDS011;35426;30.698;104.050;2023-03-04T07:45:23;101.53;;;48.00;;
17858;SDS011;35426;30.698;104.050;2023-03-04T07:48:01;91.10;;;46.87;;
17858;SDS011;35426;30.698;104.050;2023-03-04T07:50:45;95.60;;;46.17;;
17858;SDS011;35426;30.698;104.050;2023-03-04T07:53:21;87.70;;;44.73;;
17858;SDS011;35426;30.698;104.050;2023-03-04T07:55:58;90.60;;;45.83;;
17858;SDS011;35426;30.698;104.050;2023-03-04T07:58:36;101.37;;;48.07;;
17858;SDS011;35426;30.698;104.050;2023-03-04T08:01:17;94.93;;;47.70;;
17858;SDS011;35426;30.698;104.050;2023-03-04T08:03:59;94.57;;;47.17;;
17858;SDS011;35426;30.698;104.050;2023-03-04T08:06:41;96.53;;;47.40;;
17858;SDS011;35426;30.698;104.050;2023-03-04T08:09:21;91.53;;;46.40;;
17858;SDS011;35426;30.698;104.050;2023-03-04T08:12:00;100.53;;;48.60;;
17858;SDS011;35426;30.698;104.050;2023-03-04T08:14:38;89.30;;;44.57;;
17858;SDS011;35426;30.698;104.050;2023-03-04T08:17:15;96.27;;;47.47;;
17858;SDS011;35426;30.698;104.050;2023-03-04T08:20:01;93.60;;;44.93;;
17858;SDS011;35426;30.698;104.050;2023-03-04T08:22:45;102.73;;;47.47;;
17858;SDS011;35426;30.698;104.050;2023-03-04T08:25:26;101.40;;;48.63;;
17858;SDS011;35426;30.698;104.050;2023-03-04T08:28:08;98.47;;;48.03;;
17858;SDS011;35426;30.698;104.050;2023-03-04T08:30:52;93.10;;;48.57;;
17858;SDS011;35426;30.698;104.050;2023-03-04T08:33:30;104.83;;;48.60;;
17858;SDS011;35426;30.698;104.050;2023-03-04T08:36:08;90.77;;;44.80;;
17858;SDS011;35426;30.698;104.050;2023-03-04T08:38:48;94.10;;;46.37;;
17858;SDS011;35426;30.698;104.050;2023-03-04T08:41:27;98.17;;;45.60;;
17858;SDS011;35426;30.698;104.050;2023-03-04T08:44:11;83.93;;;45.60;;
17858;SDS011;35426;30.698;104.050;2023-03-04T08:46:52;85.00;;;43.63;;
17858;SDS011;35426;30.698;104.050;2023-03-04T08:49:40;85.53;;;44.23;;
17858;SDS011;35426;30.698;104.050;2023-03-04T08:52:20;81.37;;;41.87;;
17858;SDS011;35426;30.698;104.050;2023-03-04T08:54:59;90.00;;;42.37;;
17858;SDS011;35426;30.698;104.050;2023-03-04T08:57:43;85.23;;;42.57;;
17858;SDS011;35426;30.698;104.050;2023-03-04T09:00:29;90.97;;;43.90;;
17858;SDS011;35426;30.698;104.050;2023-03-04T09:03:10;80.80;;;43.00;;
17858;SDS011;35426;30.698;104.050;2023-03-04T09:05:53;87.00;;;43.00;;
17858;SDS011;35426;30.698;104.050;2023-03-04T09:08:30;94.07;;;45.80;;
17858;SDS011;35426;30.698;104.050;2023-03-04T09:11:11;84.77;;;44.47;;
17858;SDS011;35426;30.698;104.050;2023-03-04T09:13:50;86.13;;;44.10;;
17858;SDS011;35426;30.698;104.050;2023-03-04T09:16:29;102.10;;;46.43;;
17858;SDS011;35426;30.698;104.050;2023-03-04T09:19:13;91.30;;;44.37;;
17858;SDS011;35426;30.698;104.050;2023-03-04T09:21:54;82.33;;;43.27;;
17858;SDS011;35426;30.698;104.050;2023-03-04T09:24:35;82.10;;;42.50;;
17858;SDS011;35426;30.698;104.050;2023-03-04T09:27:24;87.43;;;44.50;;
17858;SDS011;35426;30.698;104.050;2023-03-04T09:30:01;94.57;;;45.27;;
17858;SDS011;35426;30.698;104.050;2023-03-04T09:32:42;95.27;;;43.90;;
17858;SDS011;35426;30.698;104.050;2023-03-04T09:35:19;81.63;;;43.97;;
17858;SDS011;35426;30.698;104.050;2023-03-04T09:37:56;91.60;;;43.23;;
17858;SDS011;35426;30.698;104.050;2023-03-04T09:40:38;89.90;;;43.13;;
17858;SDS011;35426;30.698;104.050;2023-03-04T09:43:22;85.63;;;46.40;;
17858;SDS011;35426;30.698;104.050;2023-03-04T09:46:03;88.67;;;44.67;;
17858;SDS011;35426;30.698;104.050;2023-03-04T09:48:46;89.87;;;44.13;;
17858;SDS011;35426;30.698;104.050;2023-03-04T09:51:30;91.77;;;45.27;;
17858;SDS011;35426;30.698;104.050;2023-03-04T09:54:19;91.43;;;44.67;;
17858;SDS011;35426;30.698;104.050;2023-03-04T09:57:14;97.80;;;43.87;;
17858;SDS011;35426;30.698;104.050;2023-03-04T10:00:08;90.87;;;44.63;;
17858;SDS011;35426;30.698;104.050;2023-03-04T10:03:03;92.97;;;42.57;;
17858;SDS011;35426;30.698;104.050;2023-03-04T10:05:50;91.60;;;43.30;;
17858;SDS011;35426;30.698;104.050;2023-03-04T10:08:38;96.13;;;45.03;;
17858;SDS011;35426;30.698;104.050;2023-03-04T10:11:22;99.53;;;44.40;;
17858;SDS011;35426;30.698;104.050;2023-03-04T10:14:17;87.33;;;44.67;;
17858;SDS011;35426;30.698;104.050;2023-03-04T10:20:28;92.17;;;42.37;;
17858;SDS011;35426;30.698;104.050;2023-03-04T10:23:17;99.57;;;44.90;;
17858;SDS011;35426;30.698;104.050;2023-03-04T10:25:58;92.67;;;41.97;;
17858;SDS011;35426;30.698;104.050;2023-03-04T10:28:46;87.93;;;43.37;;
17858;SDS011;35426;30.698;104.050;2023-03-04T10:31:29;86.83;;;40.80;;
17858;SDS011;35426;30.698;104.050;2023-03-04T10:34:15;100.13;;;43.33;;
17858;SDS011;35426;30.698;104.050;2023-03-04T10:37:00;90.97;;;42.73;;
17858;SDS011;35426;30.698;104.050;2023-03-04T10:39:41;87.77;;;42.27;;
17858;SDS011;35426;30.698;104.050;2023-03-04T10:42:24;84.70;;;43.73;;
17858;SDS011;35426;30.698;104.050;2023-03-04T10:45:18;95.47;;;42.23;;
17858;SDS011;35426;30.698;104.050;2023-03-04T10:48:01;89.77;;;43.33;;
17858;SDS011;35426;30.698;104.050;2023-03-04T10:50:39;94.67;;;42.57;;
17858;SDS011;35426;30.698;104.050;2023-03-04T10:53:30;87.10;;;40.80;;
17858;SDS011;35426;30.698;104.050;2023-03-04T11:02:23;99.90;;;44.30;;
17858;SDS011;35426;30.698;104.050;2023-03-04T11:05:16;94.87;;;41.83;;
17858;SDS011;35426;30.698;104.050;2023-03-04T11:07:55;93.03;;;44.20;;
17858;SDS011;35426;30.698;104.050;2023-03-04T11:10:40;100.53;;;43.47;;
17858;SDS011;35426;30.698;104.050;2023-03-04T11:13:20;93.37;;;43.03;;
17858;SDS011;35426;30.698;104.050;2023-03-04T11:16:01;90.67;;;43.23;;
17858;SDS011;35426;30.698;104.050;2023-03-04T11:18:58;99.13;;;43.23;;
17858;SDS011;35426;30.698;104.050;2023-03-04T11:21:47;100.13;;;44.30;;
17858;SDS011;35426;30.698;104.050;2023-03-04T11:24:29;104.07;;;46.27;;
17858;SDS011;35426;30.698;104.050;2023-03-04T11:27:19;119.00;;;46.97;;
17858;SDS011;35426;30.698;104.050;2023-03-04T11:30:15;108.40;;;47.03;;
17858;SDS011;35426;30.698;104.050;2023-03-04T11:33:18;103.93;;;46.10;;
17858;SDS011;35426;30.698;104.050;2023-03-04T11:36:08;110.67;;;49.23;;
17858;SDS011;35426;30.698;104.050;2023-03-04T11:39:03;115.37;;;48.50;;
17858;SDS011;35426;30.698;104.050;2023-03-04T11:41:49;122.10;;;49.47;;
17858;SDS011;35426;30.698;104.050;2023-03-04T11:44:37;113.50;;;49.60;;
17858;SDS011;35426;30.698;104.050;2023-03-04T11:47:32;126.13;;;51.27;;
17858;SDS011;35426;30.698;104.050;2023-03-04T11:50:28;124.83;;;51.17;;
17858;SDS011;35426;30.698;104.050;2023-03-04T11:53:34;116.70;;;50.53;;
17858;SDS011;35426;30.698;104.050;2023-03-04T11:56:30;129.93;;;52.73;;
17858;SDS011;35426;30.698;104.050;2023-03-04T11:59:38;125.80;;;52.87;;
17858;SDS011;35426;30.698;104.050;2023-03-04T12:02:40;132.47;;;52.80;;
17858;SDS011;35426;30.698;104.050;2023-03-04T12:05:24;122.73;;;53.00;;
17858;SDS011;35426;30.698;104.050;2023-03-04T12:11:32;121.87;;;54.07;;
17858;SDS011;35426;30.698;104.050;2023-03-04T12:14:50;135.10;;;55.10;;
17858;SDS011;35426;30.698;104.050;2023-03-04T12:17:45;138.87;;;55.40;;
17858;SDS011;35426;30.698;104.050;2023-03-04T12:21:03;144.70;;;55.50;;
17858;SDS011;35426;30.698;104.050;2023-03-04T12:27:12;132.87;;;53.63;;
17858;SDS011;35426;30.698;104.050;2023-03-04T12:30:14;131.20;;;54.03;;
17858;SDS011;35426;30.698;104.050;2023-03-04T12:33:15;133.33;;;52.80;;
17858;SDS011;35426;30.698;104.050;2023-03-04T12:36:01;124.27;;;54.73;;
17858;SDS011;35426;30.698;104.050;2023-03-04T12:38:52;136.03;;;56.20;;
17858;SDS011;35426;30.698;104.050;2023-03-04T12:41:40;135.27;;;56.63;;
17858;SDS011;35426;30.698;104.050;2023-03-04T12:44:27;137.63;;;55.57;;
17858;SDS011;35426;30.698;104.050;2023-03-04T12:47:22;144.63;;;57.77;;
17858;SDS011;35426;30.698;104.050;2023-03-04T12:50:20;129.70;;;55.70;;
17858;SDS011;35426;30.698;104.050;2023-03-04T12:53:09;136.77;;;56.80;;
17858;SDS011;35426;30.698;104.050;2023-03-04T12:56:00;161.07;;;59.67;;
17858;SDS011;35426;30.698;104.050;2023-03-04T12:58:43;140.83;;;56.40;;
17858;SDS011;35426;30.698;104.050;2023-03-04T13:01:48;146.57;;;56.47;;
17858;SDS011;35426;30.698;104.050;2023-03-04T13:04:49;141.53;;;57.23;;
17858;SDS011;35426;30.698;104.050;2023-03-04T13:07:40;143.03;;;56.67;;
17858;SDS011;35426;30.698;104.050;2023-03-04T13:10:26;147.70;;;57.40;;
17858;SDS011;35426;30.698;104.050;2023-03-04T13:13:35;140.17;;;58.83;;
17858;SDS011;35426;30.698;104.050;2023-03-04T13:16:28;145.23;;;59.37;;
17858;SDS011;35426;30.698;104.050;2023-03-04T13:22:39;137.70;;;58.97;;
17858;SDS011;35426;30.698;104.050;2023-03-04T13:25:31;143.03;;;59.57;;
17858;SDS011;35426;30.698;104.050;2023-03-04T13:28:27;146.03;;;58.03;;
17858;SDS011;35426;30.698;104.050;2023-03-04T13:31:16;149.93;;;61.10;;
17858;SDS011;35426;30.698;104.050;2023-03-04T13:34:00;154.27;;;60.23;;
17858;SDS011;35426;30.698;104.050;2023-03-04T13:39:45;140.63;;;58.80;;
17858;SDS011;35426;30.698;104.050;2023-03-04T13:49:19;143.43;;;59.53;;
17858;SDS011;35426;30.698;104.050;2023-03-04T13:58:38;140.23;;;61.50;;
17858;SDS011;35426;30.698;104.050;2023-03-04T14:01:21;140.93;;;62.57;;
17858;SDS011;35426;30.698;104.050;2023-03-04T14:04:10;141.90;;;61.53;;
17858;SDS011;35426;30.698;104.050;2023-03-04T14:06:55;143.80;;;63.10;;
17858;SDS011;35426;30.698;104.050;2023-03-04T14:09:41;147.77;;;63.70;;
17858;SDS011;35426;30.698;104.050;2023-03-04T14:12:39;156.53;;;64.20;;
17858;SDS011;35426;30.698;104.050;2023-03-04T14:15:26;140.77;;;62.17;;
17858;SDS011;35426;30.698;104.050;2023-03-04T14:18:13;149.90;;;65.20;;
17858;SDS011;35426;30.698;104.050;2023-03-04T14:21:00;138.60;;;61.87;;
17858;SDS011;35426;30.698;104.050;2023-03-04T14:23:38;149.47;;;66.83;;
17858;SDS011;35426;30.698;104.050;2023-03-04T14:26:17;154.00;;;67.07;;
17858;SDS011;35426;30.698;104.050;2023-03-04T14:29:18;148.60;;;68.33;;
17858;SDS011;35426;30.698;104.050;2023-03-04T14:35:00;149.70;;;69.50;;
17858;SDS011;35426;30.698;104.050;2023-03-04T14:37:43;153.30;;;69.50;;
17858;SDS011;35426;30.698;104.050;2023-03-04T14:40:37;157.67;;;71.53;;
17858;SDS011;35426;30.698;104.050;2023-03-04T14:43:21;177.63;;;74.50;;
17858;SDS011;35426;30.698;104.050;2023-03-04T14:46:01;150.80;;;72.60;;
17858;SDS011;35426;30.698;104.050;2023-03-04T14:48:52;154.27;;;72.70;;
17858;SDS011;35426;30.698;104.050;2023-03-04T14:51:41;148.13;;;69.70;;
17858;SDS011;35426;30.698;104.050;2023-03-04T14:54:35;159.90;;;70.57;;
17858;SDS011;35426;30.698;104.050;2023-03-04T14:57:28;144.57;;;68.77;;
17858;SDS011;35426;30.698;104.050;2023-03-04T15:00:22;135.37;;;68.67;;
17858;SDS011;35426;30.698;104.050;2023-03-04T15:03:14;143.83;;;68.40;;
17858;SDS011;35426;30.698;104.050;2023-03-04T15:06:10;146.50;;;67.43;;
17858;SDS011;35426;30.698;104.050;2023-03-04T15:09:02;154.93;;;67.47;;
17858;SDS011;35426;30.698;104.050;2023-03-04T15:11:44;156.70;;;70.23;;
17858;SDS011;35426;30.698;104.050;2023-03-04T15:14:41;146.13;;;68.60;;
17858;SDS011;35426;30.698;104.050;2023-03-04T15:17:27;139.10;;;65.93;;
17858;SDS011;35426;30.698;104.050;2023-03-04T15:20:24;144.10;;;66.60;;
17858;SDS011;35426;30.698;104.050;2023-03-04T15:23:10;143.60;;;65.47;;
17858;SDS011;35426;30.698;104.050;2023-03-04T15:25:59;146.00;;;67.73;;
17858;SDS011;35426;30.698;104.050;2023-03-04T15:28:38;144.63;;;66.87;;
17858;SDS011;35426;30.698;104.050;2023-03-04T15:31:18;142.63;;;68.40;;
17858;SDS011;35426;30.698;104.050;2023-03-04T15:34:00;144.60;;;67.40;;
17858;SDS011;35426;30.698;104.050;2023-03-04T15:36:53;150.53;;;68.67;;
17858;SDS011;35426;30.698;104.050;2023-03-04T15:39:37;148.20;;;68.07;;
17858;SDS011;35426;30.698;104.050;2023-03-04T15:42:19;155.40;;;68.37;;
17858;SDS011;35426;30.698;104.050;2023-03-04T15:45:09;148.37;;;69.23;;
17858;SDS011;35426;30.698;104.050;2023-03-04T15:47:54;158.77;;;70.77;;
17858;SDS011;35426;30.698;104.050;2023-03-04T15:50:39;156.27;;;70.73;;
17858;SDS011;35426;30.698;104.050;2023-03-04T15:53:31;152.60;;;68.50;;
17858;SDS011;35426;30.698;104.050;2023-03-04T15:56:15;150.87;;;67.83;;
17858;SDS011;35426;30.698;104.050;2023-03-04T15:58:54;147.33;;;67.43;;
17858;SDS011;35426;30.698;104.050;2023-03-04T16:01:33;146.33;;;68.70;;